createdAt,value
2022-09-12T00:00:46.947Z,1011
2022-09-12T00:01:50.213Z,1010.9
2022-09-12T00:02:53.341Z,1010.9
2022-09-12T00:03:56.879Z,1010.9
2022-09-12T00:04:59.663Z,1010.9
2022-09-12T00:06:02.415Z,1010.9
2022-09-12T00:07:05.892Z,1010.9
2022-09-12T00:08:08.703Z,1010.9
2022-09-12T00:09:11.856Z,1010.9
2022-09-12T00:10:14.450Z,1011
2022-09-12T00:11:17.876Z,1010.9
2022-09-12T00:12:21.046Z,1011
2022-09-12T00:13:24.136Z,1010.9
2022-09-12T00:14:26.578Z,1010.9
2022-09-12T00:15:29.742Z,1010.9
2022-09-12T00:16:33.008Z,1010.9
2022-09-12T00:17:36.758Z,1010.9
2022-09-12T00:18:39.505Z,1010.9
2022-09-12T00:19:42.653Z,1010.9
2022-09-12T00:20:46.269Z,1010.9
2022-09-12T00:21:49.520Z,1010.9
2022-09-12T00:22:53.167Z,1010.9
2022-09-12T00:23:56.400Z,1010.9
2022-09-12T00:24:59.660Z,1010.9
2022-09-12T00:26:03.281Z,1010.9
2022-09-12T00:27:06.504Z,1010.9
2022-09-12T00:28:09.579Z,1010.9
2022-09-12T00:29:13.020Z,1010.8
2022-09-12T00:30:15.536Z,1010.9
2022-09-12T00:31:17.876Z,1010.8
2022-09-12T00:32:20.397Z,1010.9
2022-09-12T00:33:22.830Z,1010.9
2022-09-12T00:34:25.917Z,1010.9
2022-09-12T00:35:28.631Z,1010.9
2022-09-12T00:36:31.505Z,1010.9
2022-09-12T00:37:33.865Z,1010.9
2022-09-12T00:38:37.074Z,1010.8
2022-09-12T00:39:41.091Z,1010.9
2022-09-12T00:40:44.494Z,1010.9
2022-09-12T00:41:47.088Z,1010.8
2022-09-12T00:42:49.597Z,1010.8
2022-09-12T00:43:52.378Z,1010.8
2022-09-12T00:44:55.538Z,1010.8
2022-09-12T00:45:58.422Z,1010.8
2022-09-12T00:47:01.699Z,1010.8
2022-09-12T00:48:04.868Z,1010.8
2022-09-12T00:49:07.105Z,1010.9
2022-09-12T00:50:10.289Z,1010.8
2022-09-12T00:51:13.705Z,1010.8
2022-09-12T00:52:17.419Z,1010.9
2022-09-12T00:53:20.874Z,1010.8
2022-09-12T00:54:24.361Z,1010.9
2022-09-12T00:55:27.469Z,1010.8
2022-09-12T00:56:30.557Z,1010.8
2022-09-12T00:57:33.443Z,1010.9
2022-09-12T00:58:36.869Z,1010.9
2022-09-12T00:59:40.027Z,1010.9
2022-09-12T01:00:42.903Z,1010.9
2022-09-12T01:01:47.334Z,1010.9
2022-09-12T01:02:51.216Z,1010.9
2022-09-12T01:03:53.729Z,1010.9
2022-09-12T01:04:56.889Z,1010.9
2022-09-12T01:05:59.567Z,1010.9
2022-09-12T01:07:02.922Z,1010.9
2022-09-12T01:08:05.620Z,1010.9
2022-09-12T01:09:08.930Z,1010.9
2022-09-12T01:10:12.398Z,1010.9
2022-09-12T01:11:15.698Z,1010.8
2022-09-12T01:12:18.309Z,1010.8
2022-09-12T01:13:21.526Z,1010.8
2022-09-12T01:14:24.405Z,1010.8
2022-09-12T01:15:27.399Z,1010.9
2022-09-12T01:16:30.234Z,1010.9
2022-09-12T01:17:33.735Z,1010.9
2022-09-12T01:18:36.994Z,1010.9
2022-09-12T01:19:40.086Z,1010.9
2022-09-12T01:20:43.155Z,1010.9
2022-09-12T01:21:46.140Z,1010.9
2022-09-12T01:22:49.598Z,1010.9
2022-09-12T01:23:52.035Z,1010.9
2022-09-12T01:24:54.591Z,1010.9
2022-09-12T01:25:58.360Z,1010.9
2022-09-12T01:27:01.478Z,1010.9
2022-09-12T01:28:04.670Z,1010.9
2022-09-12T01:29:07.774Z,1010.9
2022-09-12T01:30:10.587Z,1010.9
2022-09-12T01:31:13.463Z,1010.9
2022-09-12T01:32:17.096Z,1010.9
2022-09-12T01:33:20.954Z,1010.9
2022-09-12T01:34:23.829Z,1010.8
2022-09-12T01:35:27.352Z,1010.9
2022-09-12T01:36:29.976Z,1010.9
2022-09-12T01:37:32.765Z,1010.9
2022-09-12T01:38:35.690Z,1010.9
2022-09-12T01:39:38.900Z,1010.9
2022-09-12T01:40:42.642Z,1010.9
2022-09-12T01:41:47.147Z,1010.8
2022-09-12T01:42:50.258Z,1010.8
2022-09-12T01:43:53.281Z,1010.8
2022-09-12T01:44:57.015Z,1010.8
2022-09-12T01:46:00.463Z,1010.8
2022-09-12T01:47:03.666Z,1010.8
2022-09-12T01:48:06.848Z,1010.8
2022-09-12T01:49:09.728Z,1010.7
2022-09-12T01:50:13.286Z,1010.7
2022-09-12T01:51:16.150Z,1010.7
2022-09-12T01:52:18.947Z,1010.8
2022-09-12T01:53:22.096Z,1010.7
2022-09-12T01:54:24.817Z,1010.7
2022-09-12T01:55:27.964Z,1010.7
2022-09-12T01:56:31.416Z,1010.7
2022-09-12T01:57:35.178Z,1010.7
2022-09-12T01:58:38.580Z,1010.7
2022-09-12T01:59:41.813Z,1010.7
2022-09-12T02:00:44.601Z,1010.6
2022-09-12T02:01:48.162Z,1010.7
2022-09-12T02:02:51.793Z,1010.6
2022-09-12T02:03:55.239Z,1010.6
2022-09-12T02:04:57.882Z,1010.6
2022-09-12T02:06:00.949Z,1010.6
2022-09-12T02:07:04.093Z,1010.6
2022-09-12T02:08:07.336Z,1010.6
2022-09-12T02:09:10.495Z,1010.6
2022-09-12T02:10:13.232Z,1010.6
2022-09-12T02:11:16.657Z,1010.6
2022-09-12T02:12:19.464Z,1010.6
2022-09-12T02:13:22.961Z,1010.6
2022-09-12T02:14:26.147Z,1010.6
2022-09-12T02:15:29.622Z,1010.5
2022-09-12T02:16:32.619Z,1010.6
2022-09-12T02:17:36.346Z,1010.6
2022-09-12T02:18:39.398Z,1010.6
2022-09-12T02:19:42.543Z,1010.5
2022-09-12T02:20:49.272Z,1010.6
2022-09-12T02:21:52.811Z,1010.5
2022-09-12T02:22:55.703Z,1010.5
2022-09-12T02:23:58.852Z,1010.5
2022-09-12T02:25:02.482Z,1010.5
2022-09-12T02:26:05.343Z,1010.5
2022-09-12T02:27:08.694Z,1010.5
2022-09-12T02:28:12.435Z,1010.5
2022-09-12T02:29:16.273Z,1010.5
2022-09-12T02:30:19.005Z,1010.5
2022-09-12T02:31:22.415Z,1010.5
2022-09-12T02:32:25.865Z,1010.5
2022-09-12T02:33:29.212Z,1010.5
2022-09-12T02:34:31.739Z,1010.5
2022-09-12T02:35:34.602Z,1010.5
2022-09-12T02:36:37.029Z,1010.5
2022-09-12T02:37:40.112Z,1010.5
2022-09-12T02:38:43.492Z,1010.5
2022-09-12T02:39:46.959Z,1010.5
2022-09-12T02:40:50.088Z,1010.5
2022-09-12T02:41:53.263Z,1010.5
2022-09-12T02:42:56.142Z,1010.4
2022-09-12T02:43:58.893Z,1010.5
2022-09-12T02:45:02.456Z,1010.4
2022-09-12T02:46:05.993Z,1010.5
2022-09-12T02:47:08.915Z,1010.5
2022-09-12T02:48:13.963Z,1010.5
2022-09-12T02:49:16.544Z,1010.4
2022-09-12T02:50:19.107Z,1010.5
2022-09-12T02:51:24.069Z,1010.5
2022-09-12T02:52:27.010Z,1010.5
2022-09-12T02:53:29.470Z,1010.5
2022-09-12T02:54:32.806Z,1010.5
2022-09-12T02:55:35.759Z,1010.5
2022-09-12T02:56:38.541Z,1010.5
2022-09-12T02:57:41.217Z,1010.5
2022-09-12T02:58:44.152Z,1010.5
2022-09-12T02:59:47.939Z,1010.5
2022-09-12T03:00:51.883Z,1010.5
2022-09-12T03:01:56.038Z,1010.5
2022-09-12T03:02:59.885Z,1010.5
2022-09-12T03:04:02.598Z,1010.5
2022-09-12T03:05:05.729Z,1010.5
2022-09-12T03:06:09.157Z,1010.5
2022-09-12T03:07:11.751Z,1010.6
2022-09-12T03:08:14.611Z,1010.6
2022-09-12T03:09:17.125Z,1010.6
2022-09-12T03:10:20.206Z,1010.5
2022-09-12T03:11:23.625Z,1010.6
2022-09-12T03:12:26.872Z,1010.5
2022-09-12T03:13:30.023Z,1010.6
2022-09-12T03:14:32.677Z,1010.6
2022-09-12T03:15:36.047Z,1010.6
2022-09-12T03:16:39.916Z,1010.6
2022-09-12T03:17:43.377Z,1010.6
2022-09-12T03:18:46.737Z,1010.6
2022-09-12T03:19:50.430Z,1010.6
2022-09-12T03:20:53.022Z,1010.6
2022-09-12T03:21:55.880Z,1010.6
2022-09-12T03:22:59.364Z,1010.6
2022-09-12T03:24:02.150Z,1010.6
2022-09-12T03:25:05.227Z,1010.6
2022-09-12T03:26:07.384Z,1010.6
2022-09-12T03:27:10.723Z,1010.6
2022-09-12T03:28:13.661Z,1010.6
2022-09-12T03:29:16.470Z,1010.6
2022-09-12T03:30:19.421Z,1010.5
2022-09-12T03:31:22.741Z,1010.5
2022-09-12T03:32:26.491Z,1010.5
2022-09-12T03:33:29.772Z,1010.5
2022-09-12T03:34:32.953Z,1010.5
2022-09-12T03:35:35.471Z,1010.5
2022-09-12T03:36:38.263Z,1010.5
2022-09-12T03:37:40.777Z,1010.5
2022-09-12T03:38:43.307Z,1010.5
2022-09-12T03:39:46.695Z,1010.5
2022-09-12T03:40:55.172Z,1010.5
2022-09-12T03:41:58.345Z,1010.5
2022-09-12T03:43:01.504Z,1010.5
2022-09-12T03:44:04.380Z,1010.5
2022-09-12T03:45:07.374Z,1010.5
2022-09-12T03:46:10.490Z,1010.5
2022-09-12T03:47:13.893Z,1010.5
2022-09-12T03:48:17.166Z,1010.5
2022-09-12T03:49:20.531Z,1010.5
2022-09-12T03:50:23.354Z,1010.5
2022-09-12T03:51:26.337Z,1010.5
2022-09-12T03:52:29.779Z,1010.5
2022-09-12T03:53:33.033Z,1010.5
2022-09-12T03:54:36.452Z,1010.5
2022-09-12T03:55:39.792Z,1010.5
2022-09-12T03:56:42.859Z,1010.5
2022-09-12T03:57:45.927Z,1010.6
2022-09-12T03:58:49.264Z,1010.6
2022-09-12T03:59:53.427Z,1010.7
2022-09-12T04:00:56.072Z,1010.6
2022-09-12T04:02:00.100Z,1010.6
2022-09-12T04:03:03.438Z,1010.6
2022-09-12T04:04:06.458Z,1010.6
2022-09-12T04:05:09.763Z,1010.5
2022-09-12T04:06:13.223Z,1010.6
2022-09-12T04:07:15.843Z,1010.6
2022-09-12T04:08:18.514Z,1010.6
2022-09-12T04:09:21.955Z,1010.6
2022-09-12T04:10:24.467Z,1010.6
2022-09-12T04:11:28.239Z,1010.5
2022-09-12T04:12:30.948Z,1010.6
2022-09-12T04:13:33.811Z,1010.6
2022-09-12T04:14:36.962Z,1010.6
2022-09-12T04:15:40.380Z,1010.6
2022-09-12T04:16:43.676Z,1010.6
2022-09-12T04:17:46.141Z,1010.6
2022-09-12T04:18:49.634Z,1010.6
2022-09-12T04:19:53.431Z,1010.6
2022-09-12T04:20:56.616Z,1010.5
2022-09-12T04:21:59.976Z,1010.5
2022-09-12T04:23:02.564Z,1010.6
2022-09-12T04:24:05.273Z,1010.6
2022-09-12T04:25:08.610Z,1010.6
2022-09-12T04:26:11.256Z,1010.6
2022-09-12T04:27:14.039Z,1010.6
2022-09-12T04:28:17.364Z,1010.6
2022-09-12T04:29:20.334Z,1010.6
2022-09-12T04:30:23.676Z,1010.6
2022-09-12T04:31:26.505Z,1010.6
2022-09-12T04:32:28.738Z,1010.6
2022-09-12T04:33:31.518Z,1010.7
2022-09-12T04:34:34.628Z,1010.6
2022-09-12T04:35:37.834Z,1010.6
2022-09-12T04:36:41.285Z,1010.6
2022-09-12T04:37:45.106Z,1010.6
2022-09-12T04:38:48.605Z,1010.7
2022-09-12T04:39:52.032Z,1010.7
2022-09-12T04:40:54.681Z,1010.7
2022-09-12T04:41:58.407Z,1010.6
2022-09-12T04:43:00.996Z,1010.7
2022-09-12T04:44:04.342Z,1010.6
2022-09-12T04:45:07.237Z,1010.6
2022-09-12T04:46:09.869Z,1010.6
2022-09-12T04:47:13.319Z,1010.6
2022-09-12T04:48:15.856Z,1010.5
2022-09-12T04:49:18.841Z,1010.6
2022-09-12T04:50:22.594Z,1010.6
2022-09-12T04:51:26.056Z,1010.5
2022-09-12T04:52:29.578Z,1010.5
2022-09-12T04:53:32.083Z,1010.6
2022-09-12T04:54:34.975Z,1010.5
2022-09-12T04:55:37.749Z,1010.5
2022-09-12T04:56:40.905Z,1010.6
2022-09-12T04:57:43.755Z,1010.5
2022-09-12T04:58:46.805Z,1010.5
2022-09-12T04:59:50.352Z,1010.6
2022-09-12T05:00:54.012Z,1010.5
2022-09-12T05:01:58.158Z,1010.5
2022-09-12T05:03:01.804Z,1010.5
2022-09-12T05:04:04.879Z,1010.6
2022-09-12T05:05:08.602Z,1010.6
2022-09-12T05:06:11.866Z,1010.6
2022-09-12T05:07:15.906Z,1010.5
2022-09-12T05:08:19.313Z,1010.6
2022-09-12T05:09:22.549Z,1010.6
2022-09-12T05:10:26.166Z,1010.5
2022-09-12T05:12:08.916Z,1010.5
2022-09-12T05:13:11.683Z,1010.6
2022-09-12T05:14:14.837Z,1010.5
2022-09-12T05:15:18.265Z,1010.5
2022-09-12T05:16:21.198Z,1010.5
2022-09-12T05:17:24.920Z,1010.5
2022-09-12T05:18:28.341Z,1010.5
2022-09-12T05:19:31.783Z,1010.5
2022-09-12T05:20:34.767Z,1010.6
2022-09-12T05:21:37.956Z,1010.6
2022-09-12T05:22:41.452Z,1010.5
2022-09-12T05:23:44.647Z,1010.5
2022-09-12T05:24:51.017Z,1010.5
2022-09-12T05:25:54.192Z,1010.5
2022-09-12T05:26:56.485Z,1010.6
2022-09-12T05:27:59.810Z,1010.6
2022-09-12T05:29:02.670Z,1010.6
2022-09-12T05:30:05.571Z,1010.6
2022-09-12T05:31:09.084Z,1010.6
2022-09-12T05:32:12.440Z,1010.7
2022-09-12T05:33:15.034Z,1010.7
2022-09-12T05:34:17.541Z,1010.7
2022-09-12T05:35:21.260Z,1010.7
2022-09-12T05:36:24.488Z,1010.6
2022-09-12T05:37:28.523Z,1010.7
2022-09-12T05:38:32.357Z,1010.7
2022-09-12T05:39:35.822Z,1010.7
2022-09-12T05:40:39.568Z,1010.7
2022-09-12T05:41:42.293Z,1010.8
2022-09-12T05:42:45.285Z,1010.7
2022-09-12T05:43:48.302Z,1010.7
2022-09-12T05:44:51.410Z,1010.7
2022-09-12T05:45:54.507Z,1010.7
2022-09-12T05:46:58.022Z,1010.7
2022-09-12T05:48:00.809Z,1010.7
2022-09-12T05:49:03.603Z,1010.7
2022-09-12T05:50:06.678Z,1010.7
2022-09-12T05:51:09.201Z,1010.7
2022-09-12T05:52:12.352Z,1010.7
2022-09-12T05:53:15.906Z,1010.6
2022-09-12T05:54:19.429Z,1010.6
2022-09-12T05:55:22.705Z,1010.7
2022-09-12T05:56:26.175Z,1010.7
2022-09-12T05:57:29.237Z,1010.7
2022-09-12T05:58:32.532Z,1010.7
2022-09-12T05:59:35.604Z,1010.6
2022-09-12T06:00:38.470Z,1010.7
2022-09-12T06:01:41.685Z,1010.7
2022-09-12T06:02:45.255Z,1010.7
2022-09-12T06:03:48.323Z,1010.7
2022-09-12T06:04:51.031Z,1010.7
2022-09-12T06:05:53.824Z,1010.7
2022-09-12T06:06:56.622Z,1010.6
2022-09-12T06:07:59.872Z,1010.7
2022-09-12T06:09:03.335Z,1010.6
2022-09-12T06:10:07.100Z,1010.6
2022-09-12T06:11:10.296Z,1010.6
2022-09-12T06:12:13.654Z,1010.7
2022-09-12T06:13:16.915Z,1010.6
2022-09-12T06:14:20.373Z,1010.6
2022-09-12T06:15:23.792Z,1010.6
2022-09-12T06:16:27.205Z,1010.7
2022-09-12T06:17:31.153Z,1010.7
2022-09-12T06:18:33.751Z,1010.7
2022-09-12T06:19:37.199Z,1010.6
2022-09-12T06:20:39.986Z,1010.6
2022-09-12T06:21:42.766Z,1010.7
2022-09-12T06:22:45.067Z,1010.7
2022-09-12T06:23:47.925Z,1010.6
2022-09-12T06:24:57.915Z,1010.7
2022-09-12T06:26:01.567Z,1010.6
2022-09-12T06:27:04.657Z,1010.7
2022-09-12T06:28:07.624Z,1010.7
2022-09-12T06:29:10.423Z,1010.7
2022-09-12T06:30:13.421Z,1010.6
2022-09-12T06:31:16.947Z,1010.6
2022-09-12T06:32:20.100Z,1010.6
2022-09-12T06:33:23.444Z,1010.6
2022-09-12T06:34:26.264Z,1010.7
2022-09-12T06:35:29.490Z,1010.7
2022-09-12T06:36:31.661Z,1010.6
2022-09-12T06:37:35.394Z,1010.7
2022-09-12T06:38:38.841Z,1010.7
2022-09-12T06:39:41.999Z,1010.7
2022-09-12T06:40:45.066Z,1010.7
2022-09-12T06:41:48.268Z,1010.7
2022-09-12T06:42:52.098Z,1010.7
2022-09-12T06:43:55.842Z,1010.7
2022-09-12T06:44:58.155Z,1010.7
2022-09-12T06:46:01.567Z,1010.6
2022-09-12T06:47:05.490Z,1010.6
2022-09-12T06:48:08.631Z,1010.7
2022-09-12T06:49:11.146Z,1010.7
2022-09-12T06:50:13.732Z,1010.7
2022-09-12T06:51:17.278Z,1010.6
2022-09-12T06:52:20.750Z,1010.6
2022-09-12T06:53:23.346Z,1010.6
2022-09-12T06:54:25.860Z,1010.6
2022-09-12T06:55:28.439Z,1010.6
2022-09-12T06:56:31.546Z,1010.6
2022-09-12T06:57:35.094Z,1010.5
2022-09-12T06:58:38.021Z,1010.6
2022-09-12T06:59:41.371Z,1010.5
2022-09-12T07:00:44.345Z,1010.5
2022-09-12T07:01:47.521Z,1010.5
2022-09-12T07:02:51.196Z,1010.5
2022-09-12T07:03:54.277Z,1010.5
2022-09-12T07:04:57.446Z,1010.5
2022-09-12T07:06:00.807Z,1010.5
2022-09-12T07:07:03.324Z,1010.5
2022-09-12T07:08:06.549Z,1010.5
2022-09-12T07:09:09.700Z,1010.5
2022-09-12T07:10:12.874Z,1010.5
2022-09-12T07:11:18.036Z,1010.5
2022-09-12T07:12:21.493Z,1010.5
2022-09-12T07:13:25.609Z,1010.5
2022-09-12T07:14:28.640Z,1010.5
2022-09-12T07:15:31.793Z,1010.5
2022-09-12T07:16:35.577Z,1010.5
2022-09-12T07:17:39.317Z,1010.5
2022-09-12T07:18:42.470Z,1010.5
2022-09-12T07:19:45.298Z,1010.5
2022-09-12T07:20:48.804Z,1010.5
2022-09-12T07:21:58.885Z,1010.5
2022-09-12T07:23:01.809Z,1010.5
2022-09-12T07:24:04.598Z,1010.5
2022-09-12T07:25:07.660Z,1010.5
2022-09-12T07:26:10.820Z,1010.5
2022-09-12T07:27:14.204Z,1010.5
2022-09-12T07:28:16.846Z,1010.5
2022-09-12T07:29:38.211Z,1010.5
2022-09-12T07:30:42.076Z,1010.5
2022-09-12T07:31:44.739Z,1010.5
2022-09-12T07:32:47.799Z,1010.4
2022-09-12T07:33:55.172Z,1010.5
2022-09-12T07:34:58.643Z,1010.5
2022-09-12T07:36:01.474Z,1010.5
2022-09-12T07:37:04.322Z,1010.5
2022-09-12T07:38:07.383Z,1010.5
2022-09-12T07:39:10.486Z,1010.5
2022-09-12T07:40:13.444Z,1010.5
2022-09-12T07:41:16.404Z,1010.5
2022-09-12T07:42:19.874Z,1010.5
2022-09-12T07:43:23.367Z,1010.4
2022-09-12T07:44:27.390Z,1010.4
2022-09-12T07:45:31.134Z,1010.4
2022-09-12T07:46:34.332Z,1010.4
2022-09-12T07:47:36.907Z,1010.5
2022-09-12T07:48:40.427Z,1010.5
2022-09-12T07:49:42.665Z,1010.5
2022-09-12T07:50:45.901Z,1010.5
2022-09-12T07:51:49.314Z,1010.5
2022-09-12T07:52:52.107Z,1010.5
2022-09-12T07:53:55.172Z,1010.5
2022-09-12T07:54:58.202Z,1010.5
2022-09-12T07:56:01.921Z,1010.5
2022-09-12T07:57:05.126Z,1010.5
2022-09-12T07:58:08.226Z,1010.5
2022-09-12T07:59:11.626Z,1010.5
2022-09-12T08:00:15.364Z,1010.5
2022-09-12T08:01:19.119Z,1010.5
2022-09-12T08:02:22.826Z,1010.5
2022-09-12T08:03:26.285Z,1010.5
2022-09-12T08:04:29.741Z,1010.5
2022-09-12T08:05:32.912Z,1010.5
2022-09-12T08:06:36.705Z,1010.5
2022-09-12T08:07:39.899Z,1010.5
2022-09-12T08:08:43.054Z,1010.6
2022-09-12T08:09:46.411Z,1010.5
2022-09-12T08:10:49.641Z,1010.5
2022-09-12T08:11:52.184Z,1010.5
2022-09-12T08:12:54.763Z,1010.5
2022-09-12T08:13:58.494Z,1010.5
2022-09-12T08:15:01.677Z,1010.5
2022-09-12T08:16:05.238Z,1010.5
2022-09-12T08:17:09.260Z,1010.5
2022-09-12T08:18:13.067Z,1010.5
2022-09-12T08:19:15.971Z,1010.5
2022-09-12T08:20:20.049Z,1010.5
2022-09-12T08:21:30.488Z,1010.5
2022-09-12T08:22:33.443Z,1010.5
2022-09-12T08:23:36.869Z,1010.5
2022-09-12T08:24:40.327Z,1010.5
2022-09-12T08:25:43.113Z,1010.5
2022-09-12T08:26:46.538Z,1010.4
2022-09-12T08:27:48.776Z,1010.4
2022-09-12T08:28:52.483Z,1010.5
2022-09-12T08:29:55.073Z,1010.4
2022-09-12T08:30:59.208Z,1010.4
2022-09-12T08:32:03.578Z,1010.4
2022-09-12T08:33:07.401Z,1010.4
2022-09-12T08:34:11.073Z,1010.5
2022-09-12T08:35:14.131Z,1010.4
2022-09-12T08:36:17.280Z,1010.5
2022-09-12T08:37:20.723Z,1010.4
2022-09-12T08:38:23.918Z,1010.5
2022-09-12T08:39:26.989Z,1010.4
2022-09-12T08:40:29.707Z,1010.4
2022-09-12T08:41:32.843Z,1010.4
2022-09-12T08:42:35.772Z,1010.4
2022-09-12T08:43:38.094Z,1010.4
2022-09-12T08:44:41.165Z,1010.4
2022-09-12T08:45:44.363Z,1010.3
2022-09-12T08:46:47.725Z,1010.4
2022-09-12T08:47:51.808Z,1010.3
2022-09-12T08:48:55.178Z,1010.3
2022-09-12T08:49:58.966Z,1010.4
2022-09-12T08:51:02.767Z,1010.4
2022-09-12T08:52:05.093Z,1010.3
2022-09-12T08:53:08.336Z,1010.3
2022-09-12T08:54:11.154Z,1010.3
2022-09-12T08:55:14.532Z,1010.3
2022-09-12T08:56:18.263Z,1010.3
2022-09-12T08:57:21.336Z,1010.3
2022-09-12T08:58:24.836Z,1010.3
2022-09-12T08:59:28.858Z,1010.3
2022-09-12T09:00:31.812Z,1010.3
2022-09-12T09:01:35.131Z,1010.3
2022-09-12T09:02:39.525Z,1010.3
2022-09-12T09:03:42.967Z,1010.3
2022-09-12T09:04:46.488Z,1010.3
2022-09-12T09:05:50.308Z,1010.3
2022-09-12T09:06:53.181Z,1010.3
2022-09-12T09:07:56.911Z,1010.3
2022-09-12T09:08:59.347Z,1010.3
2022-09-12T09:10:02.726Z,1010.3
2022-09-12T09:11:05.693Z,1010.2
2022-09-12T09:12:08.212Z,1010.3
2022-09-12T09:13:11.564Z,1010.2
2022-09-12T09:14:14.442Z,1010.2
2022-09-12T09:15:17.063Z,1010.2
2022-09-12T09:16:20.137Z,1010.2
2022-09-12T09:17:23.387Z,1010.2
2022-09-12T09:18:26.824Z,1010.1
2022-09-12T09:19:30.294Z,1010.1
2022-09-12T09:20:33.315Z,1010.1
2022-09-12T09:21:36.801Z,1010.1
2022-09-12T09:22:39.879Z,1010.1
2022-09-12T09:23:43.186Z,1010.1
2022-09-12T09:24:47.083Z,1010.1
2022-09-12T09:25:50.439Z,1010.1
2022-09-12T09:26:53.782Z,1010.1
2022-09-12T09:27:56.926Z,1010
2022-09-12T09:29:00.651Z,1010.1
2022-09-12T09:30:04.097Z,1010
2022-09-12T09:31:06.868Z,1010
2022-09-12T09:32:10.702Z,1010
2022-09-12T09:33:13.330Z,1010
2022-09-12T09:34:16.728Z,1010
2022-09-12T09:35:20.229Z,1010
2022-09-12T09:36:23.490Z,1009.9
2022-09-12T09:37:26.707Z,1009.9
2022-09-12T09:38:29.576Z,1009.9
2022-09-12T09:39:32.997Z,1009.9
2022-09-12T09:40:36.161Z,1009.9
2022-09-12T09:41:39.608Z,1009.8
2022-09-12T09:42:43.002Z,1009.9
2022-09-12T09:43:46.721Z,1009.9
2022-09-12T09:44:49.436Z,1009.9
2022-09-12T09:45:53.049Z,1009.8
2022-09-12T09:46:56.161Z,1009.8
2022-09-12T09:47:59.290Z,1009.8
2022-09-12T09:49:02.432Z,1009.9
2022-09-12T09:50:05.703Z,1009.8
2022-09-12T09:51:09.436Z,1009.8
2022-09-12T09:52:11.908Z,1009.8
2022-09-12T09:53:15.039Z,1009.8
2022-09-12T09:54:18.846Z,1009.8
2022-09-12T09:55:21.917Z,1009.7
2022-09-12T09:56:25.923Z,1009.8
2022-09-12T09:57:29.363Z,1009.8
2022-09-12T09:58:32.431Z,1009.8
2022-09-12T09:59:35.931Z,1009.8
2022-09-12T10:00:39.262Z,1009.8
2022-09-12T10:01:42.248Z,1009.7
2022-09-12T10:02:45.263Z,1009.8
2022-09-12T10:03:48.629Z,1009.7
2022-09-12T10:04:51.554Z,1009.7
2022-09-12T10:05:55.203Z,1009.8
2022-09-12T10:06:58.396Z,1009.8
2022-09-12T10:08:01.485Z,1009.7
2022-09-12T10:09:05.524Z,1009.8
2022-09-12T10:10:09.225Z,1009.7
2022-09-12T10:11:12.677Z,1009.8
2022-09-12T10:12:15.823Z,1009.7
2022-09-12T10:13:19.251Z,1009.7
2022-09-12T10:14:22.521Z,1009.7
2022-09-12T10:15:25.191Z,1009.7
2022-09-12T10:16:28.556Z,1009.8
2022-09-12T10:17:34.861Z,1009.8
2022-09-12T10:18:37.518Z,1009.8
2022-09-12T10:19:39.201Z,1009.8
2022-09-12T10:20:42.273Z,1009.8
2022-09-12T10:21:46.035Z,1009.8
2022-09-12T10:22:49.503Z,1009.8
2022-09-12T10:23:52.886Z,1009.7
2022-09-12T10:24:56.677Z,1009.7
2022-09-12T10:25:59.199Z,1009.8
2022-09-12T10:27:02.199Z,1009.8
2022-09-12T10:28:05.275Z,1009.7
2022-09-12T10:29:07.879Z,1009.7
2022-09-12T10:30:10.773Z,1009.8
2022-09-12T10:31:13.812Z,1009.8
2022-09-12T10:32:17.951Z,1009.7
2022-09-12T10:33:21.678Z,1009.7
2022-09-12T10:34:24.838Z,1009.6
2022-09-12T10:35:27.966Z,1009.6
2022-09-12T10:36:31.178Z,1009.6
2022-09-12T10:37:34.483Z,1009.6
2022-09-12T10:38:38.225Z,1009.6
2022-09-12T10:39:41.200Z,1009.6
2022-09-12T10:40:44.890Z,1009.6
2022-09-12T10:41:48.036Z,1009.7
2022-09-12T10:42:51.121Z,1009.6
2022-09-12T10:43:53.916Z,1009.6
2022-09-12T10:44:57.155Z,1009.6
2022-09-12T10:46:00.708Z,1009.6
2022-09-12T10:47:03.977Z,1009.6
2022-09-12T10:48:08.073Z,1009.7
2022-09-12T10:49:11.181Z,1009.6
2022-09-12T10:50:23.416Z,1009.6
2022-09-12T10:51:26.655Z,1009.6
2022-09-12T10:52:30.182Z,1009.6
2022-09-12T10:53:35.875Z,1009.6
2022-09-12T10:54:39.741Z,1009.6
2022-09-12T10:55:42.840Z,1009.6
2022-09-12T10:56:46.003Z,1009.6
2022-09-12T10:57:49.139Z,1009.5
2022-09-12T10:58:51.943Z,1009.6
2022-09-12T10:59:54.817Z,1009.6
2022-09-12T11:00:58.592Z,1009.5
2022-09-12T11:02:17.266Z,1009.6
2022-09-12T11:03:20.456Z,1009.6
2022-09-12T11:04:23.903Z,1009.6
2022-09-12T11:05:27.551Z,1009.6
2022-09-12T11:06:31.075Z,1009.5
2022-09-12T11:07:33.669Z,1009.5
2022-09-12T11:08:36.776Z,1009.6
2022-09-12T11:09:40.136Z,1009.5
2022-09-12T11:10:44.761Z,1009.5
2022-09-12T11:11:47.678Z,1009.5
2022-09-12T11:12:51.411Z,1009.5
2022-09-12T11:13:54.398Z,1009.5
2022-09-12T11:14:57.385Z,1009.5
2022-09-12T11:16:00.352Z,1009.5
2022-09-12T11:17:03.657Z,1009.5
2022-09-12T11:18:06.247Z,1009.6
2022-09-12T11:19:08.954Z,1009.5
2022-09-12T11:20:12.502Z,1009.5
2022-09-12T11:21:15.854Z,1009.6
2022-09-12T11:22:19.638Z,1009.5
2022-09-12T11:23:22.790Z,1009.5
2022-09-12T11:24:25.903Z,1009.6
2022-09-12T11:25:29.331Z,1009.6
2022-09-12T11:26:32.799Z,1009.5
2022-09-12T11:27:36.232Z,1009.5
2022-09-12T11:28:42.115Z,1009.5
2022-09-12T11:29:49.510Z,1009.5
2022-09-12T11:30:52.505Z,1009.5
2022-09-12T11:31:55.913Z,1009.5
2022-09-12T11:32:59.281Z,1009.5
2022-09-12T11:34:02.180Z,1009.5
2022-09-12T11:35:05.277Z,1009.5
2022-09-12T11:36:08.369Z,1009.5
2022-09-12T11:37:18.007Z,1009.5
2022-09-12T11:38:21.528Z,1009.5
2022-09-12T11:39:24.877Z,1009.5
2022-09-12T11:40:28.359Z,1009.5
2022-09-12T11:41:31.671Z,1009.5
2022-09-12T11:42:34.855Z,1009.5
2022-09-12T11:43:38.660Z,1009.4
2022-09-12T11:44:41.830Z,1009.4
2022-09-12T11:45:44.422Z,1009.4
2022-09-12T11:46:52.425Z,1009.4
2022-09-12T11:47:56.134Z,1009.4
2022-09-12T11:48:58.770Z,1009.4
2022-09-12T11:50:00.930Z,1009.4
2022-09-12T11:51:03.802Z,1009.4
2022-09-12T11:52:07.534Z,1009.4
2022-09-12T11:53:11.050Z,1009.3
2022-09-12T11:54:14.124Z,1009.4
2022-09-12T11:55:17.483Z,1009.4
2022-09-12T11:56:20.866Z,1009.4
2022-09-12T11:57:24.219Z,1009.3
2022-09-12T11:58:27.959Z,1009.3
2022-09-12T11:59:31.702Z,1009.3
2022-09-12T12:00:35.096Z,1009.3
2022-09-12T12:01:48.435Z,1009.3
2022-09-12T12:02:52.159Z,1009.3
2022-09-12T12:03:55.421Z,1009.3
2022-09-12T12:04:58.217Z,1009.3
2022-09-12T12:06:01.112Z,1009.3
2022-09-12T12:07:03.716Z,1009.2
2022-09-12T12:08:06.774Z,1009.2
2022-09-12T12:09:10.466Z,1009.2
2022-09-12T12:10:13.421Z,1009.2
2022-09-12T12:11:16.021Z,1009.2
2022-09-12T12:12:19.999Z,1009.1
2022-09-12T12:13:23.234Z,1009.2
2022-09-12T12:14:26.981Z,1009.2
2022-09-12T12:15:30.140Z,1009.2
2022-09-12T12:16:33.881Z,1009.2
2022-09-12T12:17:37.305Z,1009.2
2022-09-12T12:18:40.663Z,1009.2
2022-09-12T12:19:44.019Z,1009.2
2022-09-12T12:20:47.446Z,1009.2
2022-09-12T12:21:50.785Z,1009.1
2022-09-12T12:22:53.402Z,1009.1
2022-09-12T12:23:57.122Z,1009.2
2022-09-12T12:25:00.006Z,1009.2
2022-09-12T12:26:02.445Z,1009.2
2022-09-12T12:27:05.872Z,1009.1
2022-09-12T12:28:09.353Z,1009.1
2022-09-12T12:29:12.779Z,1009.1
2022-09-12T12:30:16.532Z,1009
2022-09-12T12:31:20.013Z,1009
2022-09-12T12:32:23.763Z,1009.1
2022-09-12T12:33:26.634Z,1009.1
2022-09-12T12:34:29.720Z,1009.2
2022-09-12T12:35:32.913Z,1009.1
2022-09-12T12:36:36.349Z,1009.1
2022-09-12T12:37:39.521Z,1009.2
2022-09-12T12:38:42.592Z,1009.2
2022-09-12T12:39:45.961Z,1009.2
2022-09-12T12:40:50.020Z,1009.2
2022-09-12T12:41:52.521Z,1009.2
2022-09-12T12:42:55.678Z,1009.1
2022-09-12T12:43:58.978Z,1009.1
2022-09-12T12:45:01.836Z,1009.1
2022-09-12T12:46:05.721Z,1009.1
2022-09-12T12:47:09.236Z,1009.1
2022-09-12T12:48:12.483Z,1009.1
2022-09-12T12:49:15.559Z,1009.1
2022-09-12T12:50:18.350Z,1009.1
2022-09-12T12:51:21.695Z,1009
2022-09-12T12:52:24.585Z,1009
2022-09-12T12:53:28.105Z,1009
2022-09-12T12:54:30.338Z,1009
2022-09-12T12:55:33.814Z,1009
2022-09-12T12:56:36.077Z,1009
2022-09-12T12:57:38.967Z,1009
2022-09-12T12:58:42.046Z,1009
2022-09-12T12:59:45.547Z,1009
2022-09-12T13:00:47.993Z,1009
2022-09-12T13:01:55.635Z,1009
2022-09-12T13:02:59.259Z,1008.9
2022-09-12T13:04:02.455Z,1008.9
2022-09-12T13:05:05.525Z,1008.9
2022-09-12T13:06:08.398Z,1008.9
2022-09-12T13:07:11.629Z,1008.9
2022-09-12T13:08:14.434Z,1008.9
2022-09-12T13:09:17.256Z,1008.9
2022-09-12T13:10:20.247Z,1008.9
2022-09-12T13:11:22.959Z,1008.9
2022-09-12T13:12:26.106Z,1008.8